Latest Coastal Weather Observations for Nullarbor

IDS60701

Issued at 9:21 am CST Wednesday 4 May 2016 (issued every 10 minutes, with the page automatically refreshed every 10 minutes)

About coastal observations | Map of coastal stations | Coastal observations for SA | Marine services | Other Formats
Station Details ID: 018106 Name: NULLARBOR Lat: -31.45 Lon: 130.90 Height: 64.0 m
Data from the previous 72 hours. | See also: Recent months at Nullarbor
Date/Time
CST
Temp

°C
Wind Pressure Rain
since 9am
mm
Weather Cloud Vis
km
Sea
Height
m
Swell
Dir
 
Speed
knots
Gust
knots
hPa Trend Height
m
Period
s
Dir
04/09:00am 11.9 NNW 10 13 1019.8 - 0.2 - Cloudy 1 - - - -
04/08:30am 10.4 NNW 8 10 1019.6 - 0.2 - Cloudy 0.5 - - - -
04/08:00am 8.8 NNW 7 9 1019.3 - 0.2 - Cloudy 0.5 - - - -
04/07:30am 7.8 NNW 7 9 1019.0 - 0.2 - Partly cloudy 0.9 - - - -
04/07:20am 7.6 NNW 7 8 1018.8 - 0.2 - Partly cloudy 1 - - - -
04/07:00am 7.7 NNW 7 8 1018.8 - 0.2 - Partly cloudy 2 - - - -
04/06:58am 7.7 NNW 7 8 1018.8 - 0.2 - Partly cloudy 2 - - - -
04/06:30am 7.7 NNW 6 7 1018.7 - 0.0 - Partly cloudy 1 - - - -
04/06:00am 7.9 NNW 7 8 1018.3 - 0.0 - Mostly cloudy 0.5 - - - -
04/05:51am 7.9 NNW 7 8 1018.3 - 0.0 - Partly cloudy 0.8 - - - -
04/05:30am 8.4 NNW 7 7 1018.1 - 0.0 - - 2 - - - -
04/05:00am 8.7 NNW 7 8 1018.0 - 0.0 - Partly cloudy 1 - - - -
04/04:37am 9.1 NW 6 7 1018.0 - 0.0 - - 7 - - - -
04/04:30am 9.0 NW 6 7 1018.0 - 0.0 - Partly cloudy 10 - - - -
04/04:00am 9.5 NW 6 7 1017.9 - 0.0 - Partly cloudy 10 - - - -
04/03:55am 9.5 NW 6 7 1018.0 - 0.0 - Partly cloudy 9 - - - -
04/03:30am 9.7 NW 6 7 1018.1 - 0.0 - Partly cloudy 4 - - - -
04/03:07am 10.4 NW 6 7 1018.3 - 0.0 - - 7 - - - -
04/03:00am 10.4 NW 7 7 1018.2 - 0.0 - - 8 - - - -
04/02:40am 10.7 NW 6 7 1018.2 - 0.0 - - 9 - - - -
04/02:30am 10.7 NNW 7 8 1018.2 - 0.0 - - 7 - - - -
04/02:23am 10.6 NNW 7 8 1018.1 - 0.0 - - 7 - - - -
04/02:00am 11.5 NNW 5 6 1018.0 - 0.0 - Partly cloudy 9 - - - -
04/01:30am 11.7 WNW 5 7 1018.2 - 0.0 - Partly cloudy 10 - - - -
04/01:25am 11.7 WNW 6 9 1018.3 - 0.0 - Partly cloudy 9 - - - -
04/01:13am 11.2 WNW 6 10 1018.3 - 0.0 - Partly cloudy 7 - - - -
04/01:04am 11.9 WSW 5 7 1018.2 - 0.0 - Partly cloudy 9 - - - -
04/01:00am 12.4 SW 6 8 1018.2 - 0.0 - Partly cloudy 9 - - - -
04/12:30am 13.0 WSW 6 7 1018.3 - 0.0 - - 4 - - - -
04/12:00am 12.3 W 5 5 1018.5 - 0.0 - - 0.5 - - - -
 
Date/Time
CST
Temp

°C
Wind Pressure Rain
since 9am
mm
Weather Cloud Vis
km
Sea
Height
m
Swell
Dir
 
Speed
knots
Gust
knots
hPa Trend Height
m
Period
s
Dir
03/11:45pm 13.3 W 5 5 1018.6 - 0.0 - - 7 - - - -
03/11:30pm 13.8 W 5 5 1018.7 - 0.0 - - 10 - - - -
03/11:00pm 13.6 W 3 4 1019.0 - 0.0 - Partly cloudy 10 - - - -
03/10:30pm 14.1 WNW 5 8 1019.0 - 0.0 - Partly cloudy 10 - - - -
03/10:00pm 13.9 SW 8 9 1019.2 - 0.0 - Partly cloudy 9 - - - -
03/09:30pm 13.8 SSW 5 6 1019.2 - 0.0 - - 10 - - - -
03/09:00pm 14.3 SW 6 7 1019.3 - 0.0 - - 10 - - - -
03/08:30pm 14.7 SW 7 8 1019.0 - 0.0 - - 10 - - - -
03/08:00pm 15.5 SW 4 5 1018.8 - 0.0 - Partly cloudy 10 - - - -
03/07:30pm 16.0 SW 5 6 1018.5 - 0.0 - Partly cloudy 10 - - - -
03/07:00pm 16.5 SW 8 10 1018.0 - 0.0 - Partly cloudy 10 - - - -
03/06:30pm 17.8 WSW 12 15 1017.6 - 0.0 - Partly cloudy 10 - - - -
03/06:00pm 18.3 WSW 15 20 1017.1 - 0.0 - Mostly cloudy 10 - - - -
03/05:30pm 18.8 WSW 13 19 1017.0 - 0.0 - - 10 - - - -
03/05:00pm 19.2 WSW 15 19 1016.9 - 0.0 - Partly cloudy 10 - - - -
03/04:30pm 19.3 WSW 15 20 1016.4 - 0.0 - Partly cloudy 10 - - - -
03/04:00pm 19.7 WSW 16 20 1016.2 - 0.0 - Partly cloudy 10 - - - -
03/03:30pm 18.9 WSW 21 28 1015.9 - 0.0 - Partly cloudy 10 - - - -
03/03:00pm 20.3 WSW 17 23 1015.4 - 0.0 - Cloudy 10 - - - -
03/02:30pm 20.7 WSW 15 22 1015.4 - 0.0 - Partly cloudy 10 - - - -
03/02:00pm 19.9 SW 18 26 1015.4 - 0.0 - Partly cloudy 10 - - - -
03/01:30pm 20.5 WSW 17 25 1015.6 - 0.0 - Partly cloudy 10 - - - -
03/01:00pm 20.8 WSW 17 23 1015.8 - 0.0 - Partly cloudy 10 - - - -
03/12:30pm 21.4 W 14 22 1015.8 - 0.0 - Partly cloudy 10 - - - -
03/12:00pm 19.5 W 15 20 1016.2 - 0.0 - Cloudy 10 - - - -
03/11:45am 19.3 W 15 27 1016.6 - 0.0 - Partly cloudy 10 - - - -
03/11:30am 19.5 W 14 21 1016.6 - 0.0 - Partly cloudy 10 - - - -
03/11:00am 19.7 W 15 21 1016.7 - 0.0 - Partly cloudy 10 - - - -
03/10:30am 19.7 W 15 20 1016.4 - 0.0 - Partly cloudy 10 - - - -
03/10:00am 17.9 W 11 15 1016.3 - 0.0 - Partly cloudy 10 - - - -
03/09:30am 16.9 W 13 20 1016.3 - 0.0 - Partly cloudy 10 - - - -
03/09:00am 15.3 WNW 11 15 1016.0 - 0.0 - Partly cloudy 10 - - - -
03/08:30am 12.8 NW 12 15 1015.7 - 0.0 - - 10 - - - -
03/08:00am 10.8 NW 9 11 1015.3 - 0.0 - Partly cloudy 10 - - - -
03/07:30am 9.5 NW 9 12 1015.1 - 0.0 - - 10 - - - -
03/07:00am 9.1 NW 8 10 1014.8 - 0.0 - - 10 - - - -
03/06:30am 9.1 NW 9 10 1014.6 - 0.0 - - 10 - - - -
03/06:00am 9.0 WNW 9 11 1014.4 - 0.0 - - 10 - - - -
03/05:30am 9.2 WNW 10 12 1014.1 - 0.0 - - 10 - - - -
03/05:00am 8.0 NW 7 9 1013.9 - 0.0 - - 10 - - - -
03/04:30am 8.5 NW 7 9 1013.6 - 0.0 - - 10 - - - -
03/04:00am 8.3 NW 8 10 1013.4 - 0.0 - - 10 - - - -
03/03:30am 7.5 NW 7 9 1013.5 - 0.0 - - 10 - - - -
03/03:00am 7.8 NNW 8 11 1013.5 - 0.0 - - 10 - - - -
03/02:30am 7.6 NNW 7 8 1013.9 - 0.0 - - 10 - - - -
03/02:00am 8.3 NW 7 9 1014.1 - 0.0 - - 10 - - - -
03/01:30am 8.5 NW 7 7 1014.5 - 0.0 - - 10 - - - -
03/01:00am 9.3 WNW 7 9 1014.5 - 0.0 - - 10 - - - -
03/12:30am 9.4 WNW 7 9 1014.8 - 0.0 - - 10 - - - -
03/12:00am 9.1 NW 7 8 1015.0 - 0.0 - - 10 - - - -
 
Date/Time
CST
Temp

°C
Wind Pressure Rain
since 9am
mm
Weather Cloud Vis
km
Sea
Height
m
Swell
Dir
 
Speed
knots
Gust
knots
hPa Trend Height
m
Period
s
Dir
02/11:30pm 10.4 NNW 8 9 1015.2 - 0.0 - - 10 - - - -
02/11:00pm 10.1 N 8 9 1015.4 - 0.0 - - 10 - - - -
02/10:30pm 9.7 N 7 8 1015.6 - 0.0 - - 10 - - - -
02/10:00pm 9.7 N 6 8 1015.6 - 0.0 - - 10 - - - -
02/09:30pm 10.0 N 7 9 1015.6 - 0.0 - - 10 - - - -
02/09:00pm 10.8 NNW 5 6 1015.6 - 0.0 - - 10 - - - -
02/08:30pm 12.6 WNW 4 4 1015.6 - 0.0 - - 10 - - - -
02/08:00pm 14.0 WSW 4 4 1015.6 - 0.0 - - 10 - - - -
02/07:30pm 15.2 WSW 3 4 1015.3 - 0.0 - - 10 - - - -
02/07:00pm 16.4 WSW 4 5 1015.1 - 0.0 - - 10 - - - -
02/06:30pm 17.4 WSW 4 5 1014.9 - 0.0 - - 10 - - - -
02/06:00pm 18.6 SW 7 9 1014.8 - 0.0 - Mostly clear 10 - - - -
02/05:30pm 19.6 SW 11 15 1014.7 - 0.0 - - 10 - - - -
02/05:00pm 20.8 SW 11 15 1014.7 - 0.0 - - 10 - - - -
02/04:30pm 21.1 SW 12 15 1014.7 - 0.0 - - 10 - - - -
02/04:00pm 21.7 SW 11 16 1014.7 - 0.0 - - 10 - - - -
02/03:30pm 22.1 WSW 12 16 1014.9 - 0.0 - - 10 - - - -
02/03:00pm 23.0 WNW 13 21 1015.0 - 0.0 - - 10 - - - -
02/02:30pm 22.2 W 13 20 1015.4 - 0.0 - - 10 - - - -
02/02:00pm 22.2 W 15 21 1015.9 - 0.0 - - 10 - - - -
02/01:30pm 21.5 W 14 20 1016.4 - 0.0 - - 10 - - - -
02/01:00pm 21.1 W 11 17 1017.0 - 0.0 - - 10 - - - -
02/12:30pm 20.9 WNW 14 24 1017.6 - 0.0 - - 10 - - - -
02/12:00pm 20.2 WNW 14 19 1018.1 - 0.0 - - 10 - - - -
02/11:30am 19.6 W 14 21 1018.4 - 0.0 - - 10 - - - -
02/11:00am 19.6 WNW 12 16 1018.7 - 0.0 - - 10 - - - -
02/10:30am 18.4 NW 10 14 1018.9 - 0.0 - - 10 - - - -
02/10:00am 17.3 NNW 11 15 1018.9 - 0.0 - - 10 - - - -
02/09:30am 15.6 NNW 11 13 1018.8 - 0.0 - - 10 - - - -
02/09:00am 13.8 NNW 9 11 1018.7 - 0.0 - - 10 - - - -
02/08:30am 10.9 NNW 8 10 1018.6 - 0.0 - - 10 - - - -
02/08:00am 8.2 NNW 8 10 1018.4 - 0.0 - - 10 - - - -
02/07:30am 6.6 NNW 8 9 1018.2 - 0.0 - - 10 - - - -
02/07:00am 6.3 NNW 8 9 1018.1 - 0.0 - - 10 - - - -
02/06:30am 6.4 NNW 8 9 1017.9 - 0.0 - - 10 - - - -
02/06:00am 6.2 NNW 8 9 1017.9 - 0.0 - - 10 - - - -
02/05:30am 6.2 NNW 8 9 1018.0 - 0.0 - - 10 - - - -
02/05:00am 6.1 NNW 9 10 1018.0 - 0.0 - - 10 - - - -
02/04:30am 5.9 N 8 9 1017.9 - 0.0 - - 10 - - - -
02/04:00am 5.9 N 6 7 1018.0 - 0.0 - - 10 - - - -
02/03:30am 6.7 N 7 8 1018.2 - 0.0 - - 10 - - - -
02/03:00am 6.6 NNW 7 8 1018.3 - 0.0 - - 10 - - - -
02/02:30am 6.5 NW 7 7 1018.4 - 0.0 - - 10 - - - -
02/02:00am 6.7 NW 6 7 1018.7 - 0.0 - - 10 - - - -
02/01:30am 7.5 NW 6 7 1018.9 - 0.0 - - 10 - - - -
02/01:00am 8.1 N 7 8 1019.3 - 0.0 - - 10 - - - -
02/12:30am 8.7 NW 7 8 1019.4 - 0.0 - - 10 - - - -
02/12:00am 9.2 WNW 6 7 1019.7 - 0.0 - Mostly cloudy 10 - - - -
 
Date/Time
CST
Temp

°C
Wind Pressure Rain
since 9am
mm
Weather Cloud Vis
km
Sea
Height
m
Swell
Dir
 
Speed
knots
Gust
knots
hPa Trend Height
m
Period
s
Dir
01/11:30pm 9.2 NW 5 6 1019.9 - 0.0 - Partly cloudy 10 - - - -
01/11:00pm 9.2 N 6 7 1019.9 - 0.0 - Partly cloudy 10 - - - -
01/10:30pm 9.9 NNE 4 6 1020.1 - 0.0 - Partly cloudy 10 - - - -
01/10:00pm 9.5 ENE 4 5 1020.1 - 0.0 - - 10 - - - -
01/09:30pm 9.9 ENE 4 6 1020.1 - 0.0 - - 10 - - - -
01/09:00pm 9.8 ENE 4 6 1020.0 - 0.0 - - 10 - - - -
01/08:30pm 10.8 ESE 5 6 1019.9 - 0.0 - - 10 - - - -
01/08:00pm 11.5 SE 3 4 1019.9 - 0.0 - - 10 - - - -
01/07:30pm 12.6 SSE 5 6 1019.7 - 0.0 - - 10 - - - -
01/07:00pm 14.0 S 7 8 1019.4 - 0.0 - - 10 - - - -
01/06:30pm 15.0 S 6 7 1019.3 - 0.0 - - 10 - - - -
01/06:00pm 16.4 S 8 10 1019.0 - 0.0 - - 10 - - - -
01/05:30pm 17.3 S 10 12 1018.8 - 0.0 - - 10 - - - -
01/05:00pm 18.4 S 9 12 1018.7 - 0.0 - Partly cloudy 10 - - - -
01/04:30pm 18.6 S 9 12 1018.8 - 0.0 - Partly cloudy 10 - - - -
01/04:00pm 18.4 SSE 10 12 1018.8 - 0.0 - Partly cloudy 10 - - - -
01/03:30pm 18.8 S 10 14 1019.0 - 0.0 - Partly cloudy 10 - - - -
01/03:00pm 19.0 S 10 14 1018.9 - 0.0 - Partly cloudy 10 - - - -
01/02:30pm 19.6 SSW 9 13 1019.1 - 0.0 - Partly cloudy 10 - - - -
01/02:00pm 18.9 SSW 8 12 1019.4 - 0.0 - Partly cloudy 10 - - - -
01/01:30pm 18.0 SSW 11 14 1019.9 - 0.0 - Partly cloudy 10 - - - -
01/01:00pm 19.0 S 11 15 1020.3 - 0.0 - Partly cloudy 10 - - - -
01/12:30pm 18.3 SSW 11 15 1020.7 - 0.0 - Partly cloudy 10 - - - -
01/12:00pm 19.4 WNW 7 11 1020.9 - 0.0 - Partly cloudy 10 - - - -
01/11:30am 18.6 W 3 9 1021.1 - 0.0 - Partly cloudy 10 - - - -
01/11:00am 18.9 SW 4 7 1021.3 - 0.0 - - 10 - - - -
01/10:30am 17.6 WNW 4 6 1021.6 - 0.0 - Partly cloudy 10 - - - -
01/10:00am 16.1 WNW 6 7 1021.7 - 0.0 - Partly cloudy 10 - - - -
01/09:30am 14.6 WNW 6 7 1021.6 - 0.0 - Cloudy 10 - - - -

Other Formats:

Comma delimited format used in spreadsheet applications
http://www.bom.gov.au/fwo/IDS60701/IDS60701.94651.axf

JavaScript Object Notation format (JSON) in row-major order
http://www.bom.gov.au/fwo/IDS60701/IDS60701.94651.json